x

Great Slave Lake (45141) Wave Buoy

2:00am - Fri 1st Aug 2014 All times are UTC.

  • Sig Wave height 1.6ft
  • Peak Period 15s
  • Wind
    11mph, 16mph gusts
  • Sea Temp 61°f
  • Air Temp 57°f
  • Sea Pressure 1024.5mb

More Historic Weather Station data

Upgrade to MSW Pro to gain access to the past 30 days of data for over 8000 Wavebouys and Weather Stations around the globe.

Join Pro

Comparision Forecast

View Surf forecast
   
Fri 08/01 2:00am 1.6ft 15s 11 16 mph 1024.5mb 61f 57f
1:00am 2ft 14s 16 18 mph 1024.3mb 61f 57f
12:00am 0.7ft 15s 13 18 mph 1024.3mb 61f 56f
Thu 07/31 10:00pm 1ft 4s 4 7 mph 1024.5mb 61f 55f
9:00pm 1.3ft 4s 2 4 mph 1024.3mb 61f 55f
8:00pm 1.6ft 4s 2 4 mph 1023.9mb 61f 54f
7:00pm 2ft 14s 9 11 mph 1023.5mb 61f 53f
6:00pm 2.5ft 15s 13 18 mph 1023mb 61f 54f
5:00pm 2.5ft 14s 16 20 mph 1022.5mb 61f 53f
4:00pm 2.5ft 4s 16 18 mph 1022.4mb 61f 53f
3:00pm 2.5ft 4s 16 18 mph 1021.6mb 61f 54f
2:00pm 3ft 4s 16 20 mph 1021.2mb 61f 55f
1:00pm 3ft 4s 16 18 mph 1020.5mb 61f 55f
12:00pm 3ft 4s 13 20 mph 1020.3mb 62f 55f
11:00am 3ft 14s 16 18 mph 1019.7mb 62f 56f
10:00am 2.5ft 15s 16 20 mph 1019.4mb 62f 56f
9:00am 3ft 14s 13 18 mph 1018.7mb 62f 57f
8:00am 3.5ft 4s 13 16 mph 1018.1mb 62f 57f
7:00am 3.5ft 4s 18 22 mph 1017.2mb 63f 58f
6:00am 3.5ft 4s 20 22 mph 1016.3mb 63f 60f
5:00am 2.5ft 4s 22 25 mph 1015.4mb 64f 62f
4:00am 2.5ft 14s 18 22 mph 1014.3mb 65f 65f
3:00am 1.6ft 11s 16 20 mph 1013.6mb 66f 68f
2:00am 2.5ft 15s 13
mph
1012.7mb 66f 69f
1:00am 1.3ft 3s 13 16 mph 1012.1mb 67f 70f
12:00am 1ft 2s 16 18 mph 1011.9mb 67f 71f
Wed 07/30 11:00pm 0.7ft 15s 7 11 mph 1011.7mb 67f 72f
10:00pm 0.3ft 2s 7 9 mph 1011.4mb 67f 73f
9:00pm 1ft 14s 9
mph
1010.5mb 68f 71f
8:00pm 2ft 15s 9 11 mph 1010.1mb 68f 74f
7:00pm 0.3ft 2s 20 27 mph 1010.9mb 68f 75f
6:00pm 0.7ft 2s 11 13 mph 1010.5mb 68f 73f
5:00pm 0.7ft 2s 11
mph
1010.9mb 68f 72f
4:00pm 0.7ft 2s 13
mph
1011.5mb 68f 69f
3:00pm 0.7ft 3s 7 9 mph 1012.3mb 68f 69f
2:00pm 0.7ft 2s 4 7 mph 1012.3mb 68f 69f
1:00pm 0.7ft 15s 4 7 mph 1012.7mb 67f 69f
12:00pm 0.7ft 2s 7 9 mph 1012.9mb 67f 69f
11:00am 0.7ft 2s 9 11 mph 1012.8mb 67f 69f
10:00am 0.7ft 2s 9 11 mph 1012.7mb 68f 70f
9:00am 0.7ft 3s 9 11 mph 1012.9mb 68f 72f
8:00am 0.3ft 2s 9 11 mph 1013mb 68f 73f
7:00am 0.7ft 3s 9 11 mph 1013.3mb 68f 73f
6:00am 0.7ft 3s 9 11 mph 1013.5mb 69f 73f
5:00am 0.7ft 2s 9
mph
1013.4mb 69f 72f
4:00am 0.7ft 2s 11
mph
1013.7mb 69f 73f
3:00am 0.3ft 2s 11
mph
1013.9mb 70f 74f
2:00am 0.3ft 2s 9
mph
1014mb 70f 73f
1:00am 0.3ft 2s 11 13 mph 1014.2mb 70f 74f
12:00am 0.3ft 2s 11
mph
1014.5mb 71f 74f
Tue 07/29 11:00pm 0.3ft 3s 9 11 mph 1015mb 71f 74f
10:00pm  -  2s 9 11 mph 1015.6mb 71f 73f
9:00pm  -  2s 7
mph
1016.1mb 72f 73f
8:00pm  -  2s 4
mph
1016.2mb 71f 72f
7:00pm 0.3ft 2s 4
mph
1016.5mb 70f 71f
6:00pm 0.3ft 2s 4
mph
1016.9mb 70f 70f
5:00pm 0.3ft 2s 2 4 mph 1017.1mb 69f 69f
4:00pm 0.3ft 2s 7 9 mph 1017.2mb 68f 68f
3:00pm  -  2s 2 4 mph 1017.2mb 68f 69f
2:00pm  -  2s 4 7 mph 1017.1mb 67f 68f
1:00pm  -  2s 7
mph
1017mb 67f 68f
12:00pm 0.3ft 2s 7 9 mph 1016.9mb 67f 69f
11:00am 0.3ft 2s 2
mph
1016.7mb 67f 69f
10:00am 0.3ft 2s 4
mph
1016.5mb 67f 69f
9:00am 0.3ft 2s 4
mph
1016.7mb 67f 69f
8:00am 0.3ft 2s 7 9 mph 1016.7mb 68f 68f
7:00am 0.3ft 2s 4
mph
1016.5mb 68f 70f
6:00am  -  2s 7 9 mph 1016.4mb 68f 72f
5:00am  -  2s 4 7 mph 1016.4mb 68f 72f
4:00am 0.3ft 2s 7 9 mph 1016.2mb 68f 72f
3:00am 0.3ft 2s 4 7 mph 1016.2mb 68f 72f
2:00am  -  2s 4 7 mph 1016.2mb 69f 72f
1:00am  -  2s 9
mph
1016.2mb 70f 73f
12:00am  -  3s 7 9 mph 1016.3mb 70f 72f
Mon 07/28 11:00pm  -  2s 7 9 mph 1016.5mb 70f 72f
10:00pm  -  2s 4
mph
1016.8mb 71f 72f
9:00pm  -  2s 4
mph
1017mb 70f 71f
8:00pm 0.3ft 2s 4 7 mph 1017.2mb 70f 70f
7:00pm 0.3ft 2s 2
mph
1017.5mb 69f 70f
6:00pm 0.3ft 2s 2 4 mph 1017.7mb 67f 69f
5:00pm 0.7ft 3s 7
mph
1017.7mb 66f 67f
4:00pm 0.7ft 3s 9
mph
1017.7mb 66f 67f
3:00pm 1ft 14s 9 11 mph 1017.8mb 66f 66f
2:00pm 1.3ft 14s 11
mph
1017.7mb 66f 66f
1:00pm 1.3ft 15s 11 13 mph 1017.5mb 66f 67f
12:00pm 0.7ft 2s 11 13 mph 1017.4mb 66f 67f
11:00am 0.7ft 2s 9 11 mph 1017.2mb 66f 67f
10:00am 0.3ft 2s 9 11 mph 1017.1mb 66f 68f
9:00am 0.3ft 2s 11
mph
1017mb 66f 69f
8:00am 0.3ft 2s 9 11 mph 1017mb 67f 69f
7:00am 0.3ft 2s 11
mph
1016.9mb 67f 70f
6:00am 0.3ft 2s 9
mph
1016.7mb 67f 70f
5:00am 0.3ft 2s 9
mph
1016.8mb 67f 70f
4:00am  -  3s 7 9 mph 1016.7mb 68f 69f